METAR Reports From Nearby Airports

 

KLUD - Decatur, Texas, USA
Distance from Wildwood: WsPdWs 5mi, 8km
Aktualizacja: Jun 18, 2019 6:15pm
Bezchmurnie
Bezchmurnie
 Wiatr z PdZd
Wiatr: PdZd 3 mph , 6 km/h
Temperatura: 88°F , 31°C
Heat Index: 92°F , 33°C
Punkt Rosy: 68°F , 20°C
Wilgotność: 52%
Ciśnienie: 29.85 inHg , 1010.8 hPa
Clouds: Bezchmurnie
Visibility: 10 miles , 16 km
2019/06/18 23:15 KLUD 182315Z AUTO 23003KT 10SM CLR 31/20 A2985 RMK AO2 T03140199
KXBP - Bridgeport, Texas, USA
Distance from Wildwood: ZdPdZa 11mi, 18km
Aktualizacja: Jun 18, 2019 6:15pm
Bezchmurnie
Bezchmurnie
 Wiatr z calm
Wiatr: Cisza
Temperatura: 90°F , 32°C
Heat Index: 94°F , 34°C
Punkt Rosy: 68°F , 20°C
Wilgotność: 49%
Ciśnienie: 29.85 inHg , 1010.8 hPa
Clouds: Bezchmurnie
Visibility: 10 miles , 16 km
2019/06/18 23:15 KXBP 182315Z AUTO 00000KT 10SM CLR 32/20 A2985 RMK AO2 T03180203
 
K0F2 - Bowie, Texas, USA
Distance from Wildwood: PnPnZd 24mi, 39km
Aktualizacja: Jun 18, 2019 6:15pm
Bezchmurnie
Bezchmurnie
 Wiatr z Pd
Wiatr: Pd 6 mph , 9 km/h
Temperatura: 88°F , 31°C
Heat Index: 92°F , 33°C
Punkt Rosy: 68°F , 20°C
Wilgotność: 52%
Ciśnienie: 29.85 inHg , 1010.8 hPa
Clouds: Bezchmurnie
Visibility: 10 miles , 16 km
2019/06/18 23:15 K0F2 182315Z AUTO 17005KT 10SM CLR 31/20 A2985 RMK AO2 T03110196
KDTO - Denton, Texas, USA
Distance from Wildwood: Ws 27mi, 44km
Aktualizacja: Jun 18, 2019 5:53pm
Bezchmurnie
Bezchmurnie
 Wiatr z WsPdWs
Wiatr: WsPdWs 5 mph , 7 km/h
Temperatura: 91°F , 33°C
Heat Index: 93°F , 34°C
Punkt Rosy: 64°F , 18°C
Wilgotność: 41%
Ciśnienie: 29.83 inHg , 1010.2 hPa
Clouds: Bezchmurnie
Visibility: 10 miles , 16 km
2019/06/18 22:53 KDTO 182253Z 11004KT 10SM CLR 33/18 A2983 RMK AO2 SLP091 T03280183
 
KAFW - Ft Worth/Allianc, Texas, USA
Distance from Wildwood: PdWs 29mi, 46km
Aktualizacja: Jun 18, 2019 5:53pm
Few Clouds
Few Clouds
 Wiatr z Pd
Wiatr: Pd 6 mph , 9 km/h
Temperatura: 90°F , 32°C
Heat Index: 91°F , 33°C
Punkt Rosy: 63°F , 17°C
Wilgotność: 41%
Ciśnienie: 29.83 inHg , 1010.2 hPa
Clouds: Few Clouds
Visibility: 10 miles , 16 km
Cloud details: Few Clouds 5000 ft
2019/06/18 22:53 KAFW 182253Z 18005KT 10SM FEW050 32/17 A2983 RMK SLPNO
KFTW - Fort Worth, Texas, USA
Distance from Wildwood: PdPdWs 34mi, 55km
Aktualizacja: Jun 18, 2019 5:53pm
Bezchmurnie
Bezchmurnie
 Wiatr z calm
Wiatr: Cisza
Temperatura: 90°F , 32°C
Heat Index: 94°F , 34°C
Punkt Rosy: 68°F , 20°C
Wilgotność: 49%
Ciśnienie: 29.83 inHg , 1010.2 hPa
Clouds: Bezchmurnie
Visibility: 10 miles , 16 km
2019/06/18 22:53 KFTW 182253Z 00000KT 10SM CLR 32/20 A2983 RMK AO2 SLP092 T03220200
 
KNFW - Fort Worth Nas, Texas, USA
Distance from Wildwood: PdPdWs 36mi, 58km
Aktualizacja: Jun 18, 2019 5:52pm
Few Clouds
Few Clouds
 Wiatr z PnPnZd
Wiatr: PnPnZd 6 mph , 9 km/h
Temperatura: 93°F , 34°C
Heat Index: 96°F , 36°C
Punkt Rosy: 66°F , 19°C
Wilgotność: 41%
Ciśnienie: 29.83 inHg , 1010.2 hPa
Clouds: Few Clouds
Visibility: 10 miles , 16 km
Cloud details: Few Clouds 5000 ft
Few Clouds 30000 ft
2019/06/18 22:52 KNFW 182252Z 02005KT 10SM FEW050 FEW300 34/19 A2983 RMK AO2 SLP087 T03390189 VISNO N $
KGLE - Gainesville, Texas, USA
Distance from Wildwood: PnWs 38mi, 61km
Aktualizacja: Jun 18, 2019 6:15pm
Bezchmurnie
Bezchmurnie
 Wiatr z calm
Wiatr: Cisza
Temperatura: 88°F , 31°C
Heat Index: 91°F , 33°C
Punkt Rosy: 66°F , 19°C
Wilgotność: 49%
Ciśnienie: 29.85 inHg , 1010.8 hPa
Clouds: Bezchmurnie
Visibility: 10 miles , 16 km
2019/06/18 23:15 KGLE 182315Z AUTO 00000KT 10SM CLR 31/19 A2985 RMK AO2 T03100194 PWINO
 
KMWL - Mineral Wells, Texas, USA
Distance from Wildwood: PdZd 41mi, 65km
Aktualizacja: Jun 18, 2019 5:53pm
Bezchmurnie
Bezchmurnie
 Wiatr z Pd
Wiatr: Pd 8 mph , 13 km/h
Temperatura: 91°F , 33°C
Heat Index: 94°F , 34°C
Punkt Rosy: 66°F , 19°C
Wilgotność: 44%
Ciśnienie: 29.83 inHg , 1010.2 hPa
Clouds: Bezchmurnie
Visibility: 10 miles , 16 km
2019/06/18 22:53 KMWL 182253Z AUTO 19007KT 150V210 10SM CLR 33/19 A2983 RMK AO2 SLP086 T03280194
KDFW - Dallas/Ft Worth, Texas, USA
Distance from Wildwood: WsPdWs 45mi, 73km
Aktualizacja: Jun 18, 2019 5:53pm
Few Clouds
Few Clouds
 Wiatr z PdPdZd
Wiatr: PdPdZd 8 mph , 13 km/h
Temperatura: 91°F , 33°C
Heat Index: 94°F , 34°C
Punkt Rosy: 66°F , 19°C
Wilgotność: 44%
Ciśnienie: 29.82 inHg , 1009.8 hPa
Clouds: Few Clouds
Visibility: 10 miles , 16 km
Cloud details: Few Clouds 5500 ft
2019/06/18 22:53 KDFW 182253Z 21007KT 10SM FEW055 33/19 A2982 RMK AO2 SLP088 T03280189